sensor_id;sensor_type;location;lat;lon;timestamp;P1;durP1;ratioP1;P2;durP2;ratioP2
6757;SDS011;3416;53.074;8.822;2024-01-06T00:00:15;15.40;;;10.05;;
6757;SDS011;3416;53.074;8.822;2024-01-06T00:02:44;11.32;;;9.20;;
6757;SDS011;3416;53.074;8.822;2024-01-06T00:05:10;14.35;;;10.85;;
6757;SDS011;3416;53.074;8.822;2024-01-06T00:07:38;12.57;;;9.05;;
6757;SDS011;3416;53.074;8.822;2024-01-06T00:10:05;10.18;;;7.70;;
6757;SDS011;3416;53.074;8.822;2024-01-06T00:12:32;11.07;;;8.82;;
6757;SDS011;3416;53.074;8.822;2024-01-06T00:14:59;11.43;;;7.82;;
6757;SDS011;3416;53.074;8.822;2024-01-06T00:17:26;10.90;;;8.23;;
6757;SDS011;3416;53.074;8.822;2024-01-06T00:19:55;12.77;;;9.73;;
6757;SDS011;3416;53.074;8.822;2024-01-06T00:22:22;11.50;;;8.65;;
6757;SDS011;3416;53.074;8.822;2024-01-06T00:24:49;10.85;;;7.60;;
6757;SDS011;3416;53.074;8.822;2024-01-06T00:27:16;11.98;;;8.30;;
6757;SDS011;3416;53.074;8.822;2024-01-06T00:29:43;11.52;;;8.48;;
6757;SDS011;3416;53.074;8.822;2024-01-06T00:32:10;9.95;;;7.95;;
6757;SDS011;3416;53.074;8.822;2024-01-06T00:34:37;9.88;;;7.00;;
6757;SDS011;3416;53.074;8.822;2024-01-06T00:37:05;10.55;;;8.55;;
6757;SDS011;3416;53.074;8.822;2024-01-06T00:39:32;13.45;;;9.20;;
6757;SDS011;3416;53.074;8.822;2024-01-06T00:41:59;10.48;;;8.18;;
6757;SDS011;3416;53.074;8.822;2024-01-06T00:44:26;9.30;;;8.35;;
6757;SDS011;3416;53.074;8.822;2024-01-06T00:46:53;9.90;;;8.80;;
6757;SDS011;3416;53.074;8.822;2024-01-06T00:49:20;10.02;;;7.70;;
6757;SDS011;3416;53.074;8.822;2024-01-06T00:51:47;10.73;;;6.80;;
6757;SDS011;3416;53.074;8.822;2024-01-06T00:54:15;12.43;;;8.85;;
6757;SDS011;3416;53.074;8.822;2024-01-06T00:56:42;14.88;;;9.00;;
6757;SDS011;3416;53.074;8.822;2024-01-06T00:59:09;9.15;;;7.82;;
6757;SDS011;3416;53.074;8.822;2024-01-06T01:01:36;15.88;;;9.32;;
6757;SDS011;3416;53.074;8.822;2024-01-06T01:04:03;10.73;;;8.35;;
6757;SDS011;3416;53.074;8.822;2024-01-06T01:06:31;8.82;;;7.05;;
6757;SDS011;3416;53.074;8.822;2024-01-06T01:08:58;9.63;;;6.97;;
6757;SDS011;3416;53.074;8.822;2024-01-06T01:11:26;11.20;;;8.13;;
6757;SDS011;3416;53.074;8.822;2024-01-06T01:13:53;8.48;;;6.70;;
6757;SDS011;3416;53.074;8.822;2024-01-06T01:16:20;10.95;;;8.15;;
6757;SDS011;3416;53.074;8.822;2024-01-06T01:18:47;8.95;;;7.28;;
6757;SDS011;3416;53.074;8.822;2024-01-06T01:21:13;10.73;;;6.93;;
6757;SDS011;3416;53.074;8.822;2024-01-06T01:23:40;13.75;;;8.50;;
6757;SDS011;3416;53.074;8.822;2024-01-06T01:26:08;10.50;;;7.28;;
6757;SDS011;3416;53.074;8.822;2024-01-06T01:28:37;11.32;;;7.85;;
6757;SDS011;3416;53.074;8.822;2024-01-06T01:31:04;10.77;;;6.57;;
6757;SDS011;3416;53.074;8.822;2024-01-06T01:33:30;10.00;;;6.97;;
6757;SDS011;3416;53.074;8.822;2024-01-06T01:35:57;9.10;;;7.15;;
6757;SDS011;3416;53.074;8.822;2024-01-06T01:38:24;11.40;;;8.25;;
6757;SDS011;3416;53.074;8.822;2024-01-06T01:40:51;11.27;;;7.90;;
6757;SDS011;3416;53.074;8.822;2024-01-06T01:43:18;9.07;;;6.43;;
6757;SDS011;3416;53.074;8.822;2024-01-06T01:45:48;9.77;;;7.10;;
6757;SDS011;3416;53.074;8.822;2024-01-06T01:48:16;8.88;;;6.30;;
6757;SDS011;3416;53.074;8.822;2024-01-06T01:50:46;9.30;;;7.32;;
6757;SDS011;3416;53.074;8.822;2024-01-06T01:53:14;7.35;;;6.65;;
6757;SDS011;3416;53.074;8.822;2024-01-06T01:55:42;9.18;;;7.18;;
6757;SDS011;3416;53.074;8.822;2024-01-06T01:58:10;8.40;;;6.80;;
6757;SDS011;3416;53.074;8.822;2024-01-06T02:00:38;10.02;;;7.40;;
6757;SDS011;3416;53.074;8.822;2024-01-06T02:03:06;9.18;;;7.30;;
6757;SDS011;3416;53.074;8.822;2024-01-06T02:08:05;9.55;;;7.50;;
6757;SDS011;3416;53.074;8.822;2024-01-06T02:10:32;9.75;;;7.13;;
6757;SDS011;3416;53.074;8.822;2024-01-06T02:13:06;11.18;;;7.43;;
6757;SDS011;3416;53.074;8.822;2024-01-06T02:15:35;11.77;;;7.32;;
6757;SDS011;3416;53.074;8.822;2024-01-06T02:18:02;9.50;;;6.43;;
6757;SDS011;3416;53.074;8.822;2024-01-06T02:20:31;9.55;;;7.28;;
6757;SDS011;3416;53.074;8.822;2024-01-06T02:22:59;7.53;;;5.65;;
6757;SDS011;3416;53.074;8.822;2024-01-06T02:25:26;9.73;;;7.53;;
6757;SDS011;3416;53.074;8.822;2024-01-06T02:27:55;8.20;;;6.00;;
6757;SDS011;3416;53.074;8.822;2024-01-06T02:30:22;9.88;;;7.60;;
6757;SDS011;3416;53.074;8.822;2024-01-06T02:32:49;8.93;;;6.68;;
6757;SDS011;3416;53.074;8.822;2024-01-06T02:35:16;9.82;;;6.72;;
6757;SDS011;3416;53.074;8.822;2024-01-06T02:37:43;10.48;;;8.52;;
6757;SDS011;3416;53.074;8.822;2024-01-06T02:40:12;8.75;;;6.05;;
6757;SDS011;3416;53.074;8.822;2024-01-06T02:42:40;11.68;;;6.68;;
6757;SDS011;3416;53.074;8.822;2024-01-06T02:45:07;8.45;;;6.22;;
6757;SDS011;3416;53.074;8.822;2024-01-06T02:47:35;7.75;;;6.18;;
6757;SDS011;3416;53.074;8.822;2024-01-06T02:50:02;8.63;;;7.13;;
6757;SDS011;3416;53.074;8.822;2024-01-06T02:52:29;8.80;;;6.95;;
6757;SDS011;3416;53.074;8.822;2024-01-06T02:54:56;8.38;;;6.80;;
6757;SDS011;3416;53.074;8.822;2024-01-06T02:57:24;8.88;;;7.50;;
6757;SDS011;3416;53.074;8.822;2024-01-06T02:59:51;9.65;;;6.68;;
6757;SDS011;3416;53.074;8.822;2024-01-06T03:02:18;10.15;;;7.03;;
6757;SDS011;3416;53.074;8.822;2024-01-06T03:04:45;8.52;;;7.53;;
6757;SDS011;3416;53.074;8.822;2024-01-06T03:07:13;8.23;;;6.68;;
6757;SDS011;3416;53.074;8.822;2024-01-06T03:09:39;7.40;;;6.25;;
6757;SDS011;3416;53.074;8.822;2024-01-06T03:12:06;8.23;;;7.43;;
6757;SDS011;3416;53.074;8.822;2024-01-06T03:14:35;7.72;;;6.93;;
6757;SDS011;3416;53.074;8.822;2024-01-06T03:17:02;11.70;;;8.23;;
6757;SDS011;3416;53.074;8.822;2024-01-06T03:19:30;9.02;;;6.82;;
6757;SDS011;3416;53.074;8.822;2024-01-06T03:21:58;9.32;;;7.50;;
6757;SDS011;3416;53.074;8.822;2024-01-06T03:24:26;7.80;;;6.47;;
6757;SDS011;3416;53.074;8.822;2024-01-06T03:26:53;9.40;;;7.57;;
6757;SDS011;3416;53.074;8.822;2024-01-06T03:29:20;10.73;;;7.45;;
6757;SDS011;3416;53.074;8.822;2024-01-06T03:31:48;6.47;;;5.47;;
6757;SDS011;3416;53.074;8.822;2024-01-06T03:34:15;8.18;;;7.38;;
6757;SDS011;3416;53.074;8.822;2024-01-06T03:36:42;8.55;;;7.13;;
6757;SDS011;3416;53.074;8.822;2024-01-06T03:39:09;8.25;;;6.60;;
6757;SDS011;3416;53.074;8.822;2024-01-06T03:41:38;10.38;;;7.70;;
6757;SDS011;3416;53.074;8.822;2024-01-06T03:44:05;10.15;;;7.97;;
6757;SDS011;3416;53.074;8.822;2024-01-06T03:49:01;8.30;;;7.00;;
6757;SDS011;3416;53.074;8.822;2024-01-06T03:51:28;12.82;;;7.35;;
6757;SDS011;3416;53.074;8.822;2024-01-06T03:53:55;9.23;;;7.93;;
6757;SDS011;3416;53.074;8.822;2024-01-06T03:56:22;7.68;;;6.40;;
6757;SDS011;3416;53.074;8.822;2024-01-06T03:58:49;9.10;;;6.93;;
6757;SDS011;3416;53.074;8.822;2024-01-06T04:01:16;9.32;;;8.32;;
6757;SDS011;3416;53.074;8.822;2024-01-06T04:03:43;9.32;;;7.13;;
6757;SDS011;3416;53.074;8.822;2024-01-06T04:06:12;9.65;;;6.90;;
6757;SDS011;3416;53.074;8.822;2024-01-06T04:08:39;7.03;;;5.60;;
6757;SDS011;3416;53.074;8.822;2024-01-06T04:11:06;7.82;;;6.43;;
6757;SDS011;3416;53.074;8.822;2024-01-06T04:13:39;8.10;;;6.53;;
6757;SDS011;3416;53.074;8.822;2024-01-06T04:16:06;7.53;;;6.78;;
6757;SDS011;3416;53.074;8.822;2024-01-06T04:18:33;8.63;;;6.22;;
6757;SDS011;3416;53.074;8.822;2024-01-06T04:21:00;7.63;;;5.68;;
6757;SDS011;3416;53.074;8.822;2024-01-06T04:23:28;8.30;;;7.25;;
6757;SDS011;3416;53.074;8.822;2024-01-06T04:25:55;9.18;;;8.20;;
6757;SDS011;3416;53.074;8.822;2024-01-06T04:28:22;9.45;;;7.05;;
6757;SDS011;3416;53.074;8.822;2024-01-06T04:30:50;7.97;;;6.00;;
6757;SDS011;3416;53.074;8.822;2024-01-06T04:33:17;8.07;;;5.50;;
6757;SDS011;3416;53.074;8.822;2024-01-06T04:35:44;6.60;;;5.80;;
6757;SDS011;3416;53.074;8.822;2024-01-06T04:38:11;8.45;;;6.97;;
6757;SDS011;3416;53.074;8.822;2024-01-06T04:40:39;6.80;;;5.03;;
6757;SDS011;3416;53.074;8.822;2024-01-06T04:43:06;6.95;;;5.60;;
6757;SDS011;3416;53.074;8.822;2024-01-06T04:45:33;8.63;;;5.90;;
6757;SDS011;3416;53.074;8.822;2024-01-06T04:48:02;6.45;;;5.80;;
6757;SDS011;3416;53.074;8.822;2024-01-06T04:50:30;8.65;;;6.35;;
6757;SDS011;3416;53.074;8.822;2024-01-06T04:52:57;10.52;;;6.68;;
6757;SDS011;3416;53.074;8.822;2024-01-06T04:55:24;7.43;;;5.38;;
6757;SDS011;3416;53.074;8.822;2024-01-06T04:57:52;5.68;;;4.82;;
6757;SDS011;3416;53.074;8.822;2024-01-06T05:00:19;7.00;;;6.25;;
6757;SDS011;3416;53.074;8.822;2024-01-06T05:02:46;10.50;;;6.97;;
6757;SDS011;3416;53.074;8.822;2024-01-06T05:05:13;9.18;;;6.15;;
6757;SDS011;3416;53.074;8.822;2024-01-06T05:07:40;8.75;;;6.85;;
6757;SDS011;3416;53.074;8.822;2024-01-06T05:10:07;8.73;;;7.93;;
6757;SDS011;3416;53.074;8.822;2024-01-06T05:12:35;6.53;;;5.88;;
6757;SDS011;3416;53.074;8.822;2024-01-06T05:15:03;6.05;;;5.55;;
6757;SDS011;3416;53.074;8.822;2024-01-06T05:17:31;7.20;;;6.05;;
6757;SDS011;3416;53.074;8.822;2024-01-06T05:19:58;7.00;;;6.30;;
6757;SDS011;3416;53.074;8.822;2024-01-06T05:22:25;9.20;;;6.75;;
6757;SDS011;3416;53.074;8.822;2024-01-06T05:24:52;7.00;;;6.30;;
6757;SDS011;3416;53.074;8.822;2024-01-06T05:27:19;8.00;;;6.25;;
6757;SDS011;3416;53.074;8.822;2024-01-06T05:29:46;9.55;;;6.20;;
6757;SDS011;3416;53.074;8.822;2024-01-06T05:32:15;8.63;;;5.97;;
6757;SDS011;3416;53.074;8.822;2024-01-06T05:34:42;7.13;;;6.28;;
6757;SDS011;3416;53.074;8.822;2024-01-06T05:37:10;7.13;;;6.40;;
6757;SDS011;3416;53.074;8.822;2024-01-06T05:39:37;6.50;;;5.30;;
6757;SDS011;3416;53.074;8.822;2024-01-06T05:42:05;6.40;;;5.80;;
6757;SDS011;3416;53.074;8.822;2024-01-06T05:44:35;8.43;;;5.75;;
6757;SDS011;3416;53.074;8.822;2024-01-06T05:47:02;7.22;;;6.53;;
6757;SDS011;3416;53.074;8.822;2024-01-06T05:49:30;8.10;;;6.80;;
6757;SDS011;3416;53.074;8.822;2024-01-06T05:51:57;6.65;;;6.05;;
6757;SDS011;3416;53.074;8.822;2024-01-06T05:54:24;6.20;;;5.45;;
6757;SDS011;3416;53.074;8.822;2024-01-06T05:56:51;7.65;;;6.47;;
6757;SDS011;3416;53.074;8.822;2024-01-06T05:59:18;9.20;;;7.05;;
6757;SDS011;3416;53.074;8.822;2024-01-06T06:01:45;7.78;;;6.88;;
6757;SDS011;3416;53.074;8.822;2024-01-06T06:04:12;9.23;;;6.45;;
6757;SDS011;3416;53.074;8.822;2024-01-06T06:06:41;8.63;;;7.60;;
6757;SDS011;3416;53.074;8.822;2024-01-06T06:09:07;9.48;;;6.53;;
6757;SDS011;3416;53.074;8.822;2024-01-06T06:11:35;7.78;;;6.75;;
6757;SDS011;3416;53.074;8.822;2024-01-06T06:14:02;9.10;;;6.90;;
6757;SDS011;3416;53.074;8.822;2024-01-06T06:16:29;8.15;;;5.90;;
6757;SDS011;3416;53.074;8.822;2024-01-06T06:18:56;7.95;;;6.47;;
6757;SDS011;3416;53.074;8.822;2024-01-06T06:21:24;9.63;;;6.78;;
6757;SDS011;3416;53.074;8.822;2024-01-06T06:23:52;9.77;;;6.53;;
6757;SDS011;3416;53.074;8.822;2024-01-06T06:26:19;9.15;;;8.25;;
6757;SDS011;3416;53.074;8.822;2024-01-06T06:28:46;7.10;;;5.75;;
6757;SDS011;3416;53.074;8.822;2024-01-06T06:31:13;8.90;;;7.63;;
6757;SDS011;3416;53.074;8.822;2024-01-06T06:33:40;10.68;;;7.78;;
6757;SDS011;3416;53.074;8.822;2024-01-06T06:36:07;8.43;;;7.05;;
6757;SDS011;3416;53.074;8.822;2024-01-06T06:38:34;8.18;;;7.32;;
6757;SDS011;3416;53.074;8.822;2024-01-06T06:41:03;11.75;;;7.93;;
6757;SDS011;3416;53.074;8.822;2024-01-06T06:43:30;8.82;;;7.72;;
6757;SDS011;3416;53.074;8.822;2024-01-06T06:45:57;9.55;;;8.25;;
6757;SDS011;3416;53.074;8.822;2024-01-06T06:48:24;8.00;;;6.38;;
6757;SDS011;3416;53.074;8.822;2024-01-06T06:50:51;8.77;;;7.07;;
6757;SDS011;3416;53.074;8.822;2024-01-06T06:53:18;9.63;;;7.60;;
6757;SDS011;3416;53.074;8.822;2024-01-06T06:55:45;9.10;;;7.13;;
6757;SDS011;3416;53.074;8.822;2024-01-06T06:58:14;10.25;;;7.82;;
6757;SDS011;3416;53.074;8.822;2024-01-06T07:00:41;9.70;;;8.45;;
6757;SDS011;3416;53.074;8.822;2024-01-06T07:03:08;8.27;;;6.90;;
6757;SDS011;3416;53.074;8.822;2024-01-06T07:05:35;9.30;;;8.00;;
6757;SDS011;3416;53.074;8.822;2024-01-06T07:08:02;9.25;;;7.35;;
6757;SDS011;3416;53.074;8.822;2024-01-06T07:10:29;11.88;;;9.50;;
6757;SDS011;3416;53.074;8.822;2024-01-06T07:12:56;8.57;;;7.65;;
6757;SDS011;3416;53.074;8.822;2024-01-06T07:15:24;10.73;;;7.90;;
6757;SDS011;3416;53.074;8.822;2024-01-06T07:17:52;10.02;;;7.60;;
6757;SDS011;3416;53.074;8.822;2024-01-06T07:20:18;11.65;;;9.00;;
6757;SDS011;3416;53.074;8.822;2024-01-06T07:22:45;11.00;;;8.30;;
6757;SDS011;3416;53.074;8.822;2024-01-06T07:25:12;8.70;;;7.65;;
6757;SDS011;3416;53.074;8.822;2024-01-06T07:27:39;10.05;;;8.52;;
6757;SDS011;3416;53.074;8.822;2024-01-06T07:30:07;12.20;;;9.40;;
6757;SDS011;3416;53.074;8.822;2024-01-06T07:32:36;10.02;;;8.60;;
6757;SDS011;3416;53.074;8.822;2024-01-06T07:35:03;8.80;;;7.90;;
6757;SDS011;3416;53.074;8.822;2024-01-06T07:37:30;12.07;;;9.23;;
6757;SDS011;3416;53.074;8.822;2024-01-06T07:39:58;11.50;;;9.18;;
6757;SDS011;3416;53.074;8.822;2024-01-06T07:42:24;10.82;;;8.55;;
6757;SDS011;3416;53.074;8.822;2024-01-06T07:44:51;13.93;;;10.00;;
6757;SDS011;3416;53.074;8.822;2024-01-06T07:47:18;12.50;;;10.25;;
6757;SDS011;3416;53.074;8.822;2024-01-06T07:49:47;12.25;;;10.15;;
6757;SDS011;3416;53.074;8.822;2024-01-06T07:52:14;13.30;;;10.18;;
6757;SDS011;3416;53.074;8.822;2024-01-06T07:54:41;12.30;;;10.00;;
6757;SDS011;3416;53.074;8.822;2024-01-06T07:57:08;16.38;;;11.73;;
6757;SDS011;3416;53.074;8.822;2024-01-06T07:59:36;14.90;;;11.13;;
6757;SDS011;3416;53.074;8.822;2024-01-06T08:02:03;12.10;;;9.45;;
6757;SDS011;3416;53.074;8.822;2024-01-06T08:04:30;15.20;;;11.02;;
6757;SDS011;3416;53.074;8.822;2024-01-06T08:06:58;13.73;;;10.75;;
6757;SDS011;3416;53.074;8.822;2024-01-06T08:09:25;12.82;;;9.75;;
6757;SDS011;3416;53.074;8.822;2024-01-06T08:11:52;13.68;;;10.60;;
6757;SDS011;3416;53.074;8.822;2024-01-06T08:14:19;15.00;;;10.80;;
6757;SDS011;3416;53.074;8.822;2024-01-06T08:16:46;13.25;;;11.80;;
6757;SDS011;3416;53.074;8.822;2024-01-06T08:19:13;14.18;;;11.57;;
6757;SDS011;3416;53.074;8.822;2024-01-06T08:21:41;13.18;;;10.93;;
6757;SDS011;3416;53.074;8.822;2024-01-06T08:24:09;13.50;;;10.48;;
6757;SDS011;3416;53.074;8.822;2024-01-06T08:26:36;17.27;;;12.15;;
6757;SDS011;3416;53.074;8.822;2024-01-06T08:29:03;14.23;;;10.75;;
6757;SDS011;3416;53.074;8.822;2024-01-06T08:31:30;12.65;;;10.43;;
6757;SDS011;3416;53.074;8.822;2024-01-06T08:33:59;18.30;;;12.35;;
6757;SDS011;3416;53.074;8.822;2024-01-06T08:36:26;15.75;;;11.40;;
6757;SDS011;3416;53.074;8.822;2024-01-06T08:38:53;16.75;;;12.15;;
6757;SDS011;3416;53.074;8.822;2024-01-06T08:41:21;15.30;;;12.35;;
6757;SDS011;3416;53.074;8.822;2024-01-06T08:43:48;17.15;;;12.30;;
6757;SDS011;3416;53.074;8.822;2024-01-06T08:46:15;16.55;;;12.27;;
6757;SDS011;3416;53.074;8.822;2024-01-06T08:48:43;15.10;;;11.52;;
6757;SDS011;3416;53.074;8.822;2024-01-06T08:51:10;16.83;;;12.73;;
6757;SDS011;3416;53.074;8.822;2024-01-06T08:53:37;15.88;;;11.82;;
6757;SDS011;3416;53.074;8.822;2024-01-06T08:56:04;15.30;;;11.57;;
6757;SDS011;3416;53.074;8.822;2024-01-06T08:58:32;19.13;;;13.52;;
6757;SDS011;3416;53.074;8.822;2024-01-06T09:01:00;15.48;;;13.15;;
6757;SDS011;3416;53.074;8.822;2024-01-06T09:03:26;18.13;;;13.27;;
6757;SDS011;3416;53.074;8.822;2024-01-06T09:05:55;16.08;;;12.82;;
6757;SDS011;3416;53.074;8.822;2024-01-06T09:08:22;18.23;;;13.77;;
6757;SDS011;3416;53.074;8.822;2024-01-06T09:10:50;17.38;;;12.50;;
6757;SDS011;3416;53.074;8.822;2024-01-06T09:13:20;16.42;;;13.35;;
6757;SDS011;3416;53.074;8.822;2024-01-06T09:15:50;17.00;;;11.98;;
6757;SDS011;3416;53.074;8.822;2024-01-06T09:18:17;18.10;;;13.50;;
6757;SDS011;3416;53.074;8.822;2024-01-06T09:20:44;21.30;;;15.73;;
6757;SDS011;3416;53.074;8.822;2024-01-06T09:23:13;20.08;;;14.05;;
6757;SDS011;3416;53.074;8.822;2024-01-06T09:25:40;20.80;;;14.98;;
6757;SDS011;3416;53.074;8.822;2024-01-06T09:28:06;20.10;;;14.98;;
6757;SDS011;3416;53.074;8.822;2024-01-06T09:30:34;17.95;;;13.80;;
6757;SDS011;3416;53.074;8.822;2024-01-06T09:33:03;20.83;;;15.05;;
6757;SDS011;3416;53.074;8.822;2024-01-06T09:35:30;18.13;;;13.80;;
6757;SDS011;3416;53.074;8.822;2024-01-06T09:37:57;18.38;;;13.52;;
6757;SDS011;3416;53.074;8.822;2024-01-06T09:40:24;18.08;;;13.35;;
6757;SDS011;3416;53.074;8.822;2024-01-06T09:42:51;18.70;;;13.52;;
6757;SDS011;3416;53.074;8.822;2024-01-06T09:45:19;17.65;;;13.85;;
6757;SDS011;3416;53.074;8.822;2024-01-06T09:47:47;18.75;;;14.30;;
6757;SDS011;3416;53.074;8.822;2024-01-06T09:50:18;19.75;;;15.07;;
6757;SDS011;3416;53.074;8.822;2024-01-06T09:52:46;19.98;;;14.55;;
6757;SDS011;3416;53.074;8.822;2024-01-06T09:55:19;16.05;;;11.85;;
6757;SDS011;3416;53.074;8.822;2024-01-06T09:57:51;16.77;;;13.77;;
6757;SDS011;3416;53.074;8.822;2024-01-06T10:00:18;20.67;;;15.93;;
6757;SDS011;3416;53.074;8.822;2024-01-06T10:02:46;33.92;;;18.15;;
6757;SDS011;3416;53.074;8.822;2024-01-06T10:05:14;20.08;;;16.30;;
6757;SDS011;3416;53.074;8.822;2024-01-06T10:07:43;20.00;;;14.35;;
6757;SDS011;3416;53.074;8.822;2024-01-06T10:10:13;16.77;;;14.68;;
6757;SDS011;3416;53.074;8.822;2024-01-06T10:12:41;19.23;;;14.15;;
6757;SDS011;3416;53.074;8.822;2024-01-06T10:15:09;16.70;;;12.63;;
6757;SDS011;3416;53.074;8.822;2024-01-06T10:17:37;16.83;;;13.27;;
6757;SDS011;3416;53.074;8.822;2024-01-06T10:20:06;17.00;;;14.27;;
6757;SDS011;3416;53.074;8.822;2024-01-06T10:22:35;18.85;;;12.57;;
6757;SDS011;3416;53.074;8.822;2024-01-06T10:25:06;16.17;;;11.63;;
6757;SDS011;3416;53.074;8.822;2024-01-06T10:27:34;14.60;;;13.07;;
6757;SDS011;3416;53.074;8.822;2024-01-06T10:30:01;15.98;;;12.32;;
6757;SDS011;3416;53.074;8.822;2024-01-06T10:32:31;20.10;;;16.42;;
6757;SDS011;3416;53.074;8.822;2024-01-06T10:34:58;15.52;;;13.93;;
6757;SDS011;3416;53.074;8.822;2024-01-06T10:37:26;14.75;;;11.55;;
6757;SDS011;3416;53.074;8.822;2024-01-06T10:42:44;12.68;;;10.95;;
6757;SDS011;3416;53.074;8.822;2024-01-06T10:45:12;15.65;;;13.05;;
6757;SDS011;3416;53.074;8.822;2024-01-06T10:47:40;14.35;;;11.23;;
6757;SDS011;3416;53.074;8.822;2024-01-06T10:50:08;15.63;;;12.80;;
6757;SDS011;3416;53.074;8.822;2024-01-06T10:52:37;15.90;;;12.00;;
6757;SDS011;3416;53.074;8.822;2024-01-06T10:55:04;16.88;;;13.07;;
6757;SDS011;3416;53.074;8.822;2024-01-06T10:57:33;17.73;;;12.93;;
6757;SDS011;3416;53.074;8.822;2024-01-06T11:00:03;20.88;;;15.85;;
6757;SDS011;3416;53.074;8.822;2024-01-06T11:02:31;19.33;;;15.50;;
6757;SDS011;3416;53.074;8.822;2024-01-06T11:04:59;26.85;;;15.75;;
6757;SDS011;3416;53.074;8.822;2024-01-06T11:07:26;27.80;;;16.65;;
6757;SDS011;3416;53.074;8.822;2024-01-06T11:09:56;18.30;;;13.75;;
6757;SDS011;3416;53.074;8.822;2024-01-06T11:12:24;19.33;;;14.73;;
6757;SDS011;3416;53.074;8.822;2024-01-06T11:14:53;19.13;;;14.68;;
6757;SDS011;3416;53.074;8.822;2024-01-06T11:20:15;21.95;;;14.27;;
6757;SDS011;3416;53.074;8.822;2024-01-06T11:22:42;18.33;;;14.88;;
6757;SDS011;3416;53.074;8.822;2024-01-06T11:25:13;27.02;;;15.80;;
6757;SDS011;3416;53.074;8.822;2024-01-06T11:27:42;20.33;;;15.07;;
6757;SDS011;3416;53.074;8.822;2024-01-06T11:30:20;21.77;;;14.43;;
6757;SDS011;3416;53.074;8.822;2024-01-06T11:32:48;17.48;;;13.32;;
6757;SDS011;3416;53.074;8.822;2024-01-06T11:35:18;21.80;;;16.17;;
6757;SDS011;3416;53.074;8.822;2024-01-06T11:37:52;20.58;;;15.35;;
6757;SDS011;3416;53.074;8.822;2024-01-06T11:40:23;23.73;;;16.55;;
6757;SDS011;3416;53.074;8.822;2024-01-06T11:42:58;24.38;;;18.45;;
6757;SDS011;3416;53.074;8.822;2024-01-06T11:45:29;23.33;;;15.10;;
6757;SDS011;3416;53.074;8.822;2024-01-06T11:47:57;22.75;;;15.77;;
6757;SDS011;3416;53.074;8.822;2024-01-06T11:50:27;22.30;;;17.20;;
6757;SDS011;3416;53.074;8.822;2024-01-06T11:52:55;24.42;;;16.02;;
6757;SDS011;3416;53.074;8.822;2024-01-06T11:55:22;24.20;;;16.05;;
6757;SDS011;3416;53.074;8.822;2024-01-06T11:57:53;22.25;;;15.70;;
6757;SDS011;3416;53.074;8.822;2024-01-06T12:00:21;24.75;;;17.50;;
6757;SDS011;3416;53.074;8.822;2024-01-06T12:02:50;27.00;;;18.95;;
6757;SDS011;3416;53.074;8.822;2024-01-06T12:05:22;24.42;;;16.50;;
6757;SDS011;3416;53.074;8.822;2024-01-06T12:07:53;29.75;;;18.35;;
6757;SDS011;3416;53.074;8.822;2024-01-06T12:10:21;26.45;;;16.42;;
6757;SDS011;3416;53.074;8.822;2024-01-06T12:12:55;25.75;;;18.92;;
6757;SDS011;3416;53.074;8.822;2024-01-06T12:15:24;27.60;;;18.10;;
6757;SDS011;3416;53.074;8.822;2024-01-06T12:17:53;26.20;;;18.15;;
6757;SDS011;3416;53.074;8.822;2024-01-06T12:20:21;24.05;;;17.45;;
6757;SDS011;3416;53.074;8.822;2024-01-06T12:22:48;28.67;;;20.90;;
6757;SDS011;3416;53.074;8.822;2024-01-06T12:25:15;27.85;;;19.13;;
6757;SDS011;3416;53.074;8.822;2024-01-06T12:27:42;24.50;;;18.98;;
6757;SDS011;3416;53.074;8.822;2024-01-06T12:30:12;28.73;;;20.65;;
6757;SDS011;3416;53.074;8.822;2024-01-06T12:32:45;28.80;;;20.45;;
6757;SDS011;3416;53.074;8.822;2024-01-06T12:35:15;22.80;;;16.88;;
6757;SDS011;3416;53.074;8.822;2024-01-06T12:37:43;25.67;;;17.20;;
6757;SDS011;3416;53.074;8.822;2024-01-06T12:40:11;23.85;;;17.15;;
6757;SDS011;3416;53.074;8.822;2024-01-06T12:42:40;25.70;;;19.33;;
6757;SDS011;3416;53.074;8.822;2024-01-06T12:45:07;26.75;;;18.95;;
6757;SDS011;3416;53.074;8.822;2024-01-06T12:47:36;26.58;;;17.30;;
6757;SDS011;3416;53.074;8.822;2024-01-06T12:50:04;23.52;;;17.58;;
6757;SDS011;3416;53.074;8.822;2024-01-06T12:52:33;24.30;;;16.92;;
6757;SDS011;3416;53.074;8.822;2024-01-06T12:55:00;28.85;;;19.52;;
6757;SDS011;3416;53.074;8.822;2024-01-06T12:57:28;28.65;;;19.60;;
6757;SDS011;3416;53.074;8.822;2024-01-06T12:59:55;23.75;;;16.77;;
6757;SDS011;3416;53.074;8.822;2024-01-06T13:02:22;33.90;;;18.40;;
6757;SDS011;3416;53.074;8.822;2024-01-06T13:04:49;25.50;;;16.95;;
6757;SDS011;3416;53.074;8.822;2024-01-06T13:07:16;28.55;;;17.33;;
6757;SDS011;3416;53.074;8.822;2024-01-06T13:09:45;26.88;;;17.50;;
6757;SDS011;3416;53.074;8.822;2024-01-06T13:12:12;25.42;;;16.85;;
6757;SDS011;3416;53.074;8.822;2024-01-06T13:14:39;24.23;;;16.27;;
6757;SDS011;3416;53.074;8.822;2024-01-06T13:17:09;21.38;;;17.02;;
6757;SDS011;3416;53.074;8.822;2024-01-06T13:19:36;31.85;;;17.70;;
6757;SDS011;3416;53.074;8.822;2024-01-06T13:22:03;22.20;;;15.75;;
6757;SDS011;3416;53.074;8.822;2024-01-06T13:24:30;20.67;;;15.63;;
6757;SDS011;3416;53.074;8.822;2024-01-06T13:26:58;23.90;;;16.15;;
6757;SDS011;3416;53.074;8.822;2024-01-06T13:29:28;19.38;;;14.50;;
6757;SDS011;3416;53.074;8.822;2024-01-06T13:31:54;17.10;;;14.63;;
6757;SDS011;3416;53.074;8.822;2024-01-06T13:34:22;21.08;;;16.00;;
6757;SDS011;3416;53.074;8.822;2024-01-06T13:36:49;18.65;;;13.88;;
6757;SDS011;3416;53.074;8.822;2024-01-06T13:39:17;25.15;;;17.40;;
6757;SDS011;3416;53.074;8.822;2024-01-06T13:41:45;20.08;;;15.18;;
6757;SDS011;3416;53.074;8.822;2024-01-06T13:44:15;22.48;;;15.13;;
6757;SDS011;3416;53.074;8.822;2024-01-06T13:46:42;20.20;;;14.63;;
6757;SDS011;3416;53.074;8.822;2024-01-06T13:49:11;20.65;;;13.82;;
6757;SDS011;3416;53.074;8.822;2024-01-06T13:51:38;19.23;;;13.15;;
6757;SDS011;3416;53.074;8.822;2024-01-06T13:54:05;17.92;;;13.40;;
6757;SDS011;3416;53.074;8.822;2024-01-06T13:56:32;19.38;;;14.75;;
6757;SDS011;3416;53.074;8.822;2024-01-06T13:59:00;21.88;;;16.02;;
6757;SDS011;3416;53.074;8.822;2024-01-06T14:01:29;21.38;;;13.75;;
6757;SDS011;3416;53.074;8.822;2024-01-06T14:03:56;20.23;;;15.40;;
6757;SDS011;3416;53.074;8.822;2024-01-06T14:06:23;16.48;;;13.82;;
6757;SDS011;3416;53.074;8.822;2024-01-06T14:08:54;21.83;;;15.40;;
6757;SDS011;3416;53.074;8.822;2024-01-06T14:11:21;19.13;;;14.07;;
6757;SDS011;3416;53.074;8.822;2024-01-06T14:13:48;20.67;;;15.52;;
6757;SDS011;3416;53.074;8.822;2024-01-06T14:16:16;17.70;;;13.77;;
6757;SDS011;3416;53.074;8.822;2024-01-06T14:18:47;21.55;;;13.20;;
6757;SDS011;3416;53.074;8.822;2024-01-06T14:21:14;19.65;;;14.50;;
6757;SDS011;3416;53.074;8.822;2024-01-06T14:23:44;22.63;;;15.30;;
6757;SDS011;3416;53.074;8.822;2024-01-06T14:26:13;19.92;;;15.55;;
6757;SDS011;3416;53.074;8.822;2024-01-06T14:28:40;22.10;;;13.48;;
6757;SDS011;3416;53.074;8.822;2024-01-06T14:31:07;19.27;;;13.02;;
6757;SDS011;3416;53.074;8.822;2024-01-06T14:33:35;20.63;;;13.82;;
6757;SDS011;3416;53.074;8.822;2024-01-06T14:36:04;18.90;;;12.77;;
6757;SDS011;3416;53.074;8.822;2024-01-06T14:38:31;17.88;;;15.05;;
6757;SDS011;3416;53.074;8.822;2024-01-06T14:40:58;20.80;;;14.05;;
6757;SDS011;3416;53.074;8.822;2024-01-06T14:43:25;22.25;;;14.63;;
6757;SDS011;3416;53.074;8.822;2024-01-06T14:45:52;22.88;;;15.38;;
6757;SDS011;3416;53.074;8.822;2024-01-06T14:48:19;17.08;;;12.80;;
6757;SDS011;3416;53.074;8.822;2024-01-06T14:50:46;20.25;;;14.00;;
6757;SDS011;3416;53.074;8.822;2024-01-06T14:53:17;23.75;;;18.20;;
6757;SDS011;3416;53.074;8.822;2024-01-06T14:55:44;19.40;;;14.07;;
6757;SDS011;3416;53.074;8.822;2024-01-06T14:58:10;20.08;;;14.82;;
6757;SDS011;3416;53.074;8.822;2024-01-06T15:00:38;18.10;;;13.48;;
6757;SDS011;3416;53.074;8.822;2024-01-06T15:03:05;20.90;;;14.60;;
6757;SDS011;3416;53.074;8.822;2024-01-06T15:05:32;20.70;;;14.88;;
6757;SDS011;3416;53.074;8.822;2024-01-06T15:07:59;19.40;;;13.65;;
6757;SDS011;3416;53.074;8.822;2024-01-06T15:10:27;19.15;;;13.48;;
6757;SDS011;3416;53.074;8.822;2024-01-06T15:12:54;22.85;;;15.85;;